sensor_id;sensor_type;location;lat;lon;timestamp;pressure;altitude;pressure_sealevel;temperature;humidity
62510;BME280;48558;48.242;11.654;2023-05-20T00:00:45;96248.72;;;11.87;100.00
62510;BME280;48558;48.242;11.654;2023-05-20T00:05:01;96253.03;;;12.02;100.00
62510;BME280;48558;48.242;11.654;2023-05-20T00:09:13;96247.38;;;11.97;100.00
62510;BME280;48558;48.242;11.654;2023-05-20T00:13:28;96242.03;;;11.93;100.00
62510;BME280;48558;48.242;11.654;2023-05-20T00:17:40;96240.34;;;11.96;100.00
62510;BME280;48558;48.242;11.654;2023-05-20T00:21:53;96239.22;;;11.79;100.00
62510;BME280;48558;48.242;11.654;2023-05-20T00:26:05;96242.16;;;11.75;100.00
62510;BME280;48558;48.242;11.654;2023-05-20T00:30:18;96247.72;;;11.75;100.00
62510;BME280;48558;48.242;11.654;2023-05-20T00:34:42;96244.75;;;11.79;100.00
62510;BME280;48558;48.242;11.654;2023-05-20T00:38:55;96240.81;;;11.71;100.00
62510;BME280;48558;48.242;11.654;2023-05-20T00:43:08;96222.06;;;11.66;100.00
62510;BME280;48558;48.242;11.654;2023-05-20T00:47:32;96240.81;;;11.71;100.00
62510;BME280;48558;48.242;11.654;2023-05-20T00:51:46;96243.88;;;11.73;100.00
62510;BME280;48558;48.242;11.654;2023-05-20T00:55:58;96240.66;;;11.65;100.00
62510;BME280;48558;48.242;11.654;2023-05-20T01:00:11;96236.63;;;11.42;100.00
62510;BME280;48558;48.242;11.654;2023-05-20T01:04:25;96240.41;;;11.54;100.00
62510;BME280;48558;48.242;11.654;2023-05-20T01:08:38;96236.09;;;11.29;100.00
62510;BME280;48558;48.242;11.654;2023-05-20T01:12:55;96231.28;;;11.39;100.00
62510;BME280;48558;48.242;11.654;2023-05-20T01:17:09;96228.81;;;11.41;100.00
62510;BME280;48558;48.242;11.654;2023-05-20T01:21:24;96230.00;;;11.49;100.00
62510;BME280;48558;48.242;11.654;2023-05-20T01:25:38;96224.38;;;11.67;100.00
62510;BME280;48558;48.242;11.654;2023-05-20T01:30:01;96225.94;;;11.59;100.00
62510;BME280;48558;48.242;11.654;2023-05-20T01:34:14;96202.50;;;11.45;100.00
62510;BME280;48558;48.242;11.654;2023-05-20T01:38:27;96223.38;;;11.56;100.00
62510;BME280;48558;48.242;11.654;2023-05-20T01:42:45;96223.94;;;11.60;100.00
62510;BME280;48558;48.242;11.654;2023-05-20T01:46:58;96229.13;;;11.67;100.00
62510;BME280;48558;48.242;11.654;2023-05-20T01:51:12;96227.31;;;11.64;100.00
62510;BME280;48558;48.242;11.654;2023-05-20T01:55:25;96218.19;;;11.72;100.00
62510;BME280;48558;48.242;11.654;2023-05-20T01:59:38;96196.78;;;11.49;100.00
62510;BME280;48558;48.242;11.654;2023-05-20T02:04:00;96203.81;;;11.59;100.00
62510;BME280;48558;48.242;11.654;2023-05-20T02:08:13;96203.03;;;11.59;100.00
62510;BME280;48558;48.242;11.654;2023-05-20T02:12:25;96194.56;;;11.62;100.00
62510;BME280;48558;48.242;11.654;2023-05-20T02:16:38;96204.56;;;11.60;100.00
62510;BME280;48558;48.242;11.654;2023-05-20T02:21:04;96199.75;;;11.45;100.00
62510;BME280;48558;48.242;11.654;2023-05-20T02:25:17;96198.75;;;11.58;100.00
62510;BME280;48558;48.242;11.654;2023-05-20T02:29:35;96195.91;;;11.43;100.00
62510;BME280;48558;48.242;11.654;2023-05-20T02:33:48;96207.41;;;11.50;100.00
62510;BME280;48558;48.242;11.654;2023-05-20T02:38:00;96209.94;;;11.39;100.00
62510;BME280;48558;48.242;11.654;2023-05-20T02:42:13;96214.25;;;11.31;100.00
62510;BME280;48558;48.242;11.654;2023-05-20T02:46:25;96197.72;;;11.22;100.00
62510;BME280;48558;48.242;11.654;2023-05-20T02:50:49;96209.69;;;11.28;100.00
62510;BME280;48558;48.242;11.654;2023-05-20T02:55:01;96209.25;;;11.21;100.00
62510;BME280;48558;48.242;11.654;2023-05-20T02:59:14;96185.81;;;11.07;100.00
62510;BME280;48558;48.242;11.654;2023-05-20T03:03:28;96205.47;;;11.09;100.00
62510;BME280;48558;48.242;11.654;2023-05-20T03:07:40;96197.78;;;10.80;100.00
62510;BME280;48558;48.242;11.654;2023-05-20T03:11:53;96201.25;;;10.90;100.00
62510;BME280;48558;48.242;11.654;2023-05-20T03:16:05;96202.19;;;10.87;100.00
62510;BME280;48558;48.242;11.654;2023-05-20T03:20:18;96216.03;;;10.87;100.00
62510;BME280;48558;48.242;11.654;2023-05-20T03:24:31;96222.09;;;11.00;100.00
62510;BME280;48558;48.242;11.654;2023-05-20T03:28:44;96225.75;;;11.06;100.00
62510;BME280;48558;48.242;11.654;2023-05-20T03:33:05;96213.00;;;10.76;100.00
62510;BME280;48558;48.242;11.654;2023-05-20T03:37:18;96222.09;;;11.00;100.00
62510;BME280;48558;48.242;11.654;2023-05-20T03:41:36;96215.66;;;11.03;100.00
62510;BME280;48558;48.242;11.654;2023-05-20T03:45:49;96213.94;;;11.06;100.00
62510;BME280;48558;48.242;11.654;2023-05-20T03:50:01;96216.00;;;11.20;100.00
62510;BME280;48558;48.242;11.654;2023-05-20T03:54:24;96219.97;;;11.28;100.00
62510;BME280;48558;48.242;11.654;2023-05-20T03:58:37;96224.00;;;11.18;100.00
62510;BME280;48558;48.242;11.654;2023-05-20T04:02:51;96225.31;;;11.08;100.00
62510;BME280;48558;48.242;11.654;2023-05-20T04:07:03;96219.13;;;10.80;100.00
62510;BME280;48558;48.242;11.654;2023-05-20T04:11:16;96218.03;;;11.19;100.00
62510;BME280;48558;48.242;11.654;2023-05-20T04:15:29;96217.25;;;11.19;100.00
62510;BME280;48558;48.242;11.654;2023-05-20T04:19:41;96224.41;;;11.34;100.00
62510;BME280;48558;48.242;11.654;2023-05-20T04:23:56;96188.41;;;11.11;100.00
62510;BME280;48558;48.242;11.654;2023-05-20T04:28:08;96201.81;;;11.03;100.00
62510;BME280;48558;48.242;11.654;2023-05-20T04:32:21;96213.91;;;11.15;100.00
62510;BME280;48558;48.242;11.654;2023-05-20T04:36:34;96208.53;;;11.11;100.00
62510;BME280;48558;48.242;11.654;2023-05-20T04:40:49;96207.66;;;11.29;100.00
62510;BME280;48558;48.242;11.654;2023-05-20T04:45:12;96195.63;;;11.41;100.00
62510;BME280;48558;48.242;11.654;2023-05-20T04:49:32;96197.75;;;11.46;100.00
62510;BME280;48558;48.242;11.654;2023-05-20T04:53:45;96202.38;;;11.87;100.00
62510;BME280;48558;48.242;11.654;2023-05-20T04:57:58;96198.63;;;12.14;100.00
62510;BME280;48558;48.242;11.654;2023-05-20T05:02:10;96205.63;;;12.24;100.00
62510;BME280;48558;48.242;11.654;2023-05-20T05:06:23;96201.03;;;12.36;100.00
62510;BME280;48558;48.242;11.654;2023-05-20T05:10:36;96202.72;;;12.04;100.00
62510;BME280;48558;48.242;11.654;2023-05-20T05:14:49;96199.44;;;12.58;100.00
62510;BME280;48558;48.242;11.654;2023-05-20T05:19:02;96201.91;;;12.42;100.00
62510;BME280;48558;48.242;11.654;2023-05-20T05:23:22;96207.25;;;12.60;100.00
62510;BME280;48558;48.242;11.654;2023-05-20T05:27:45;96188.91;;;12.48;100.00
62510;BME280;48558;48.242;11.654;2023-05-20T05:32:00;96183.31;;;12.91;100.00
62510;BME280;48558;48.242;11.654;2023-05-20T05:36:23;96184.47;;;13.00;100.00
62510;BME280;48558;48.242;11.654;2023-05-20T05:40:37;96187.63;;;13.07;100.00
62510;BME280;48558;48.242;11.654;2023-05-20T05:44:59;96175.38;;;13.14;100.00
62510;BME280;48558;48.242;11.654;2023-05-20T05:49:12;96192.56;;;13.03;100.00
62510;BME280;48558;48.242;11.654;2023-05-20T05:53:34;96190.53;;;13.33;100.00
62510;BME280;48558;48.242;11.654;2023-05-20T05:57:47;96191.19;;;13.83;100.00
62510;BME280;48558;48.242;11.654;2023-05-20T06:02:05;96185.97;;;13.50;100.00
62510;BME280;48558;48.242;11.654;2023-05-20T06:06:18;96186.09;;;13.06;100.00
62510;BME280;48558;48.242;11.654;2023-05-20T06:10:30;96190.25;;;13.31;100.00
62510;BME280;48558;48.242;11.654;2023-05-20T06:14:43;96210.69;;;13.88;100.00
62510;BME280;48558;48.242;11.654;2023-05-20T06:18:55;96201.66;;;14.13;100.00
62510;BME280;48558;48.242;11.654;2023-05-20T06:23:21;96177.53;;;14.76;100.00
62510;BME280;48558;48.242;11.654;2023-05-20T06:27:33;96188.66;;;15.13;100.00
62510;BME280;48558;48.242;11.654;2023-05-20T06:31:46;96191.94;;;15.06;100.00
62510;BME280;48558;48.242;11.654;2023-05-20T06:35:58;96190.28;;;15.25;100.00
62510;BME280;48558;48.242;11.654;2023-05-20T06:40:13;96179.06;;;15.14;100.00
62510;BME280;48558;48.242;11.654;2023-05-20T06:44:25;96177.66;;;15.30;100.00
62510;BME280;48558;48.242;11.654;2023-05-20T06:48:38;96188.84;;;15.35;100.00
62510;BME280;48558;48.242;11.654;2023-05-20T06:53:00;96139.31;;;15.50;100.00
62510;BME280;48558;48.242;11.654;2023-05-20T06:57:23;96171.97;;;16.09;100.00
62510;BME280;48558;48.242;11.654;2023-05-20T07:01:45;96161.56;;;15.98;100.00
62510;BME280;48558;48.242;11.654;2023-05-20T07:06:09;96155.94;;;15.87;100.00
62510;BME280;48558;48.242;11.654;2023-05-20T07:10:21;96159.00;;;15.89;100.00
62510;BME280;48558;48.242;11.654;2023-05-20T07:14:34;96165.13;;;15.45;100.00
62510;BME280;48558;48.242;11.654;2023-05-20T07:18:47;96159.44;;;15.76;100.00
62510;BME280;48558;48.242;11.654;2023-05-20T07:23:09;96146.00;;;15.75;100.00
62510;BME280;48558;48.242;11.654;2023-05-20T07:27:23;96146.22;;;17.13;100.00
62510;BME280;48558;48.242;11.654;2023-05-20T07:31:35;96155.09;;;16.51;100.00
62510;BME280;48558;48.242;11.654;2023-05-20T07:35:48;96149.78;;;16.92;100.00
62510;BME280;48558;48.242;11.654;2023-05-20T07:40:00;96151.06;;;17.02;100.00
62510;BME280;48558;48.242;11.654;2023-05-20T07:44:23;96153.78;;;17.52;100.00
62510;BME280;48558;48.242;11.654;2023-05-20T07:48:36;96150.50;;;17.31;100.00
62510;BME280;48558;48.242;11.654;2023-05-20T07:52:49;96121.28;;;17.54;100.00
62510;BME280;48558;48.242;11.654;2023-05-20T07:57:07;96155.97;;;17.81;100.00
62510;BME280;48558;48.242;11.654;2023-05-20T08:01:19;96146.28;;;17.87;100.00
62510;BME280;48558;48.242;11.654;2023-05-20T08:05:35;96148.72;;;18.08;100.00
62510;BME280;48558;48.242;11.654;2023-05-20T08:09:48;96137.19;;;18.69;100.00
62510;BME280;48558;48.242;11.654;2023-05-20T08:14:01;96139.09;;;18.85;100.00
62510;BME280;48558;48.242;11.654;2023-05-20T08:18:14;96125.34;;;19.41;100.00
62510;BME280;48558;48.242;11.654;2023-05-20T08:22:27;96128.47;;;19.80;100.00
62510;BME280;48558;48.242;11.654;2023-05-20T08:26:39;96116.22;;;20.20;100.00
62510;BME280;48558;48.242;11.654;2023-05-20T08:30:52;96113.69;;;19.79;100.00
62510;BME280;48558;48.242;11.654;2023-05-20T08:35:06;96102.44;;;19.42;100.00
62510;BME280;48558;48.242;11.654;2023-05-20T08:39:19;96106.03;;;20.73;100.00
62510;BME280;48558;48.242;11.654;2023-05-20T08:43:31;96127.56;;;20.97;100.00
62510;BME280;48558;48.242;11.654;2023-05-20T08:47:54;96118.34;;;20.51;100.00
62510;BME280;48558;48.242;11.654;2023-05-20T08:52:08;96126.50;;;21.31;100.00
62510;BME280;48558;48.242;11.654;2023-05-20T08:56:23;96122.34;;;21.06;100.00
62510;BME280;48558;48.242;11.654;2023-05-20T09:00:41;96117.56;;;19.76;100.00
62510;BME280;48558;48.242;11.654;2023-05-20T09:04:54;96111.63;;;20.73;100.00
62510;BME280;48558;48.242;11.654;2023-05-20T09:09:09;96118.91;;;21.26;99.40
62510;BME280;48558;48.242;11.654;2023-05-20T09:13:31;96109.50;;;21.24;100.00
62510;BME280;48558;48.242;11.654;2023-05-20T09:17:44;96100.59;;;20.62;100.00
62510;BME280;48558;48.242;11.654;2023-05-20T09:22:10;96098.59;;;20.89;100.00
62510;BME280;48558;48.242;11.654;2023-05-20T09:26:26;96121.56;;;23.04;88.54
62510;BME280;48558;48.242;11.654;2023-05-20T09:30:41;96106.63;;;22.96;96.33
62510;BME280;48558;48.242;11.654;2023-05-20T09:35:06;96103.44;;;24.05;73.06
62510;BME280;48558;48.242;11.654;2023-05-20T09:39:29;96106.34;;;22.87;89.60
62510;BME280;48558;48.242;11.654;2023-05-20T09:43:45;96122.81;;;24.01;80.39
62510;BME280;48558;48.242;11.654;2023-05-20T09:48:00;96108.28;;;25.21;64.43
62510;BME280;48558;48.242;11.654;2023-05-20T09:52:14;96108.69;;;23.65;80.40
62510;BME280;48558;48.242;11.654;2023-05-20T09:56:33;96080.53;;;24.16;73.92
62510;BME280;48558;48.242;11.654;2023-05-20T10:00:46;96092.91;;;23.70;75.32
62510;BME280;48558;48.242;11.654;2023-05-20T10:05:13;96090.66;;;22.78;81.72
62510;BME280;48558;48.242;11.654;2023-05-20T10:19:25;96081.66;;;22.25;87.31
62510;BME280;48558;48.242;11.654;2023-05-20T10:23:51;96076.72;;;22.05;91.69
62510;BME280;48558;48.242;11.654;2023-05-20T10:28:07;96079.88;;;22.35;93.47
62510;BME280;48558;48.242;11.654;2023-05-20T10:32:27;96077.84;;;22.90;87.19
62510;BME280;48558;48.242;11.654;2023-05-20T10:41:09;96063.28;;;24.35;94.52
62510;BME280;48558;48.242;11.654;2023-05-20T10:45:28;96036.25;;;26.07;69.97
62510;BME280;48558;48.242;11.654;2023-05-20T10:49:51;96047.78;;;24.86;63.31
62510;BME280;48558;48.242;11.654;2023-05-20T10:54:13;96048.66;;;25.65;66.08
62510;BME280;48558;48.242;11.654;2023-05-20T10:58:26;96054.28;;;28.00;52.86
62510;BME280;48558;48.242;11.654;2023-05-20T11:02:39;96042.19;;;28.26;59.36
62510;BME280;48558;48.242;11.654;2023-05-20T11:06:52;96042.72;;;25.93;57.53
62510;BME280;48558;48.242;11.654;2023-05-20T11:11:15;96031.09;;;27.69;47.72
62510;BME280;48558;48.242;11.654;2023-05-20T11:15:27;96037.63;;;28.13;47.29
62510;BME280;48558;48.242;11.654;2023-05-20T11:19:42;96033.13;;;27.59;56.48
62510;BME280;48558;48.242;11.654;2023-05-20T11:23:54;96033.50;;;28.24;50.91
62510;BME280;48558;48.242;11.654;2023-05-20T11:28:11;96026.41;;;27.64;49.42
62510;BME280;48558;48.242;11.654;2023-05-20T11:32:26;96004.31;;;26.14;54.52
62510;BME280;48558;48.242;11.654;2023-05-20T11:36:42;96015.91;;;25.16;57.51
62510;BME280;48558;48.242;11.654;2023-05-20T11:40:55;96010.44;;;25.18;66.58
62510;BME280;48558;48.242;11.654;2023-05-20T11:45:12;96012.16;;;26.63;62.82
62510;BME280;48558;48.242;11.654;2023-05-20T11:49:25;96008.88;;;27.92;55.70
62510;BME280;48558;48.242;11.654;2023-05-20T11:53:39;96005.25;;;26.81;60.90
62510;BME280;48558;48.242;11.654;2023-05-20T11:58:02;96007.31;;;26.49;58.74
62510;BME280;48558;48.242;11.654;2023-05-20T12:02:15;95987.84;;;27.95;50.70
62510;BME280;48558;48.242;11.654;2023-05-20T12:06:35;95994.25;;;26.85;54.23
62510;BME280;48558;48.242;11.654;2023-05-20T12:10:48;95995.13;;;27.13;57.04
62510;BME280;48558;48.242;11.654;2023-05-20T12:15:02;95990.44;;;27.49;54.29
62510;BME280;48558;48.242;11.654;2023-05-20T12:19:15;95985.78;;;26.78;55.02
62510;BME280;48558;48.242;11.654;2023-05-20T12:23:28;95985.75;;;27.44;53.80
62510;BME280;48558;48.242;11.654;2023-05-20T12:27:47;95983.81;;;27.98;54.61
62510;BME280;48558;48.242;11.654;2023-05-20T12:31:59;95976.53;;;27.19;51.88
62510;BME280;48558;48.242;11.654;2023-05-20T12:36:13;95986.97;;;27.17;52.13
62510;BME280;48558;48.242;11.654;2023-05-20T12:40:35;95981.34;;;26.03;54.09
62510;BME280;48558;48.242;11.654;2023-05-20T12:44:49;95987.44;;;26.56;52.52
62510;BME280;48558;48.242;11.654;2023-05-20T12:49:02;95982.91;;;27.27;48.70
62510;BME280;48558;48.242;11.654;2023-05-20T12:53:15;95976.84;;;27.06;47.48
62510;BME280;48558;48.242;11.654;2023-05-20T12:57:27;95947.13;;;27.49;49.13
62510;BME280;48558;48.242;11.654;2023-05-20T13:01:41;95974.13;;;27.16;49.87
62510;BME280;48558;48.242;11.654;2023-05-20T13:05:54;95965.00;;;27.00;47.06
62510;BME280;48558;48.242;11.654;2023-05-20T13:10:06;95985.16;;;27.29;48.40
62510;BME280;48558;48.242;11.654;2023-05-20T13:14:19;95976.22;;;28.54;47.45
62510;BME280;48558;48.242;11.654;2023-05-20T13:18:32;95975.16;;;27.79;44.08
62510;BME280;48558;48.242;11.654;2023-05-20T13:22:45;95968.78;;;27.20;50.20
62510;BME280;48558;48.242;11.654;2023-05-20T13:27:03;95961.44;;;27.34;46.64
62510;BME280;48558;48.242;11.654;2023-05-20T13:31:16;95940.53;;;28.07;44.92
62510;BME280;48558;48.242;11.654;2023-05-20T13:35:29;95952.56;;;27.98;47.78
62510;BME280;48558;48.242;11.654;2023-05-20T13:39:41;95946.56;;;28.84;42.78
62510;BME280;48558;48.242;11.654;2023-05-20T13:43:54;95938.84;;;29.13;46.40
62510;BME280;48558;48.242;11.654;2023-05-20T13:48:06;95949.69;;;27.71;45.55
62510;BME280;48558;48.242;11.654;2023-05-20T13:52:21;95944.25;;;25.76;51.06
62510;BME280;48558;48.242;11.654;2023-05-20T13:56:42;95922.00;;;25.18;50.18
62510;BME280;48558;48.242;11.654;2023-05-20T14:00:55;95926.72;;;26.10;51.06
62510;BME280;48558;48.242;11.654;2023-05-20T14:05:08;95926.53;;;26.15;49.97
62510;BME280;48558;48.242;11.654;2023-05-20T14:09:21;95919.41;;;26.56;49.66
62510;BME280;48558;48.242;11.654;2023-05-20T14:13:33;95922.94;;;26.40;51.68
62510;BME280;48558;48.242;11.654;2023-05-20T14:17:57;95900.69;;;25.72;51.02
62510;BME280;48558;48.242;11.654;2023-05-20T14:22:09;95898.41;;;25.78;52.42
62510;BME280;48558;48.242;11.654;2023-05-20T14:26:25;95898.34;;;24.30;57.67
62510;BME280;48558;48.242;11.654;2023-05-20T14:30:45;95895.31;;;24.05;60.68
62510;BME280;48558;48.242;11.654;2023-05-20T14:34:57;95873.06;;;24.02;64.08
62510;BME280;48558;48.242;11.654;2023-05-20T14:39:11;95882.69;;;23.99;60.78
62510;BME280;48558;48.242;11.654;2023-05-20T14:43:23;95872.31;;;23.86;65.35
62510;BME280;48558;48.242;11.654;2023-05-20T14:47:37;95879.28;;;23.85;69.91
62510;BME280;48558;48.242;11.654;2023-05-20T14:51:51;95880.22;;;23.95;68.63
62510;BME280;48558;48.242;11.654;2023-05-20T14:56:03;95865.66;;;23.53;71.37
62510;BME280;48558;48.242;11.654;2023-05-20T15:00:16;95875.56;;;23.39;74.32
62510;BME280;48558;48.242;11.654;2023-05-20T15:04:29;95882.47;;;23.89;71.33
62510;BME280;48558;48.242;11.654;2023-05-20T15:08:42;95870.03;;;23.77;66.81
62510;BME280;48558;48.242;11.654;2023-05-20T15:12:54;95878.53;;;23.34;69.31
62510;BME280;48558;48.242;11.654;2023-05-20T15:17:06;95877.44;;;23.37;67.32
62510;BME280;48558;48.242;11.654;2023-05-20T15:21:19;95864.94;;;23.25;66.12
62510;BME280;48558;48.242;11.654;2023-05-20T15:25:32;95878.44;;;23.54;64.81
62510;BME280;48558;48.242;11.654;2023-05-20T15:29:45;95886.59;;;23.88;67.01
62510;BME280;48558;48.242;11.654;2023-05-20T15:34:09;95878.88;;;23.30;65.34
62510;BME280;48558;48.242;11.654;2023-05-20T15:38:32;95875.66;;;23.19;66.14
62510;BME280;48558;48.242;11.654;2023-05-20T15:42:44;95866.75;;;23.07;68.06
62510;BME280;48558;48.242;11.654;2023-05-20T15:46:58;95873.69;;;23.42;69.28
62510;BME280;48558;48.242;11.654;2023-05-20T15:51:11;95874.63;;;23.37;65.03
62510;BME280;48558;48.242;11.654;2023-05-20T15:55:24;95886.41;;;23.86;63.40
62510;BME280;48558;48.242;11.654;2023-05-20T15:59:36;95877.63;;;24.58;61.31
62510;BME280;48558;48.242;11.654;2023-05-20T16:03:59;95879.66;;;24.95;55.90
62510;BME280;48558;48.242;11.654;2023-05-20T16:08:12;95875.66;;;23.77;64.00
62510;BME280;48558;48.242;11.654;2023-05-20T16:12:24;95885.03;;;23.57;67.14
62510;BME280;48558;48.242;11.654;2023-05-20T16:16:37;95868.97;;;24.18;63.98
62510;BME280;48558;48.242;11.654;2023-05-20T16:20:50;95850.63;;;23.66;67.58
62510;BME280;48558;48.242;11.654;2023-05-20T16:25:03;95844.41;;;23.60;66.92
62510;BME280;48558;48.242;11.654;2023-05-20T16:29:22;95861.66;;;23.41;69.09
62510;BME280;48558;48.242;11.654;2023-05-20T16:33:36;95865.91;;;22.84;75.09
62510;BME280;48558;48.242;11.654;2023-05-20T16:37:59;95858.63;;;22.60;79.25
62510;BME280;48558;48.242;11.654;2023-05-20T16:42:12;95860.50;;;22.17;83.38
62510;BME280;48558;48.242;11.654;2023-05-20T16:46:25;95856.22;;;21.95;86.84
62510;BME280;48558;48.242;11.654;2023-05-20T16:50:37;95871.25;;;21.97;86.77
62510;BME280;48558;48.242;11.654;2023-05-20T16:59:19;95871.41;;;21.79;90.91
62510;BME280;48558;48.242;11.654;2023-05-20T17:03:33;95870.69;;;21.44;98.00
62510;BME280;48558;48.242;11.654;2023-05-20T17:07:46;95866.88;;;21.55;92.87
62510;BME280;48558;48.242;11.654;2023-05-20T17:12:02;95859.03;;;21.40;97.53
62510;BME280;48558;48.242;11.654;2023-05-20T17:16:15;95864.47;;;21.25;97.41
62510;BME280;48558;48.242;11.654;2023-05-20T17:20:28;95876.84;;;21.09;100.00
62510;BME280;48558;48.242;11.654;2023-05-20T17:24:40;95875.50;;;21.10;100.00
62510;BME280;48558;48.242;11.654;2023-05-20T17:28:53;95879.06;;;21.24;100.00
62510;BME280;48558;48.242;11.654;2023-05-20T17:33:05;95885.66;;;21.00;100.00
62510;BME280;48558;48.242;11.654;2023-05-20T17:37:18;95889.16;;;20.80;100.00
62510;BME280;48558;48.242;11.654;2023-05-20T17:41:41;95880.41;;;20.57;100.00
62510;BME280;48558;48.242;11.654;2023-05-20T17:45:53;95894.09;;;20.48;100.00
62510;BME280;48558;48.242;11.654;2023-05-20T17:50:07;95895.38;;;20.47;100.00
62510;BME280;48558;48.242;11.654;2023-05-20T17:54:21;95893.47;;;20.10;100.00
62510;BME280;48558;48.242;11.654;2023-05-20T17:58:33;95898.31;;;20.10;100.00
62510;BME280;48558;48.242;11.654;2023-05-20T18:02:47;95904.13;;;19.98;100.00
62510;BME280;48558;48.242;11.654;2023-05-20T18:06:59;95900.75;;;19.87;100.00
62510;BME280;48558;48.242;11.654;2023-05-20T18:11:12;95899.66;;;19.58;100.00
62510;BME280;48558;48.242;11.654;2023-05-20T18:15:24;95901.00;;;19.52;100.00
62510;BME280;48558;48.242;11.654;2023-05-20T18:19:37;95899.59;;;19.26;100.00
62510;BME280;48558;48.242;11.654;2023-05-20T18:23:49;95904.47;;;19.20;100.00
62510;BME280;48558;48.242;11.654;2023-05-20T18:28:02;95911.91;;;18.99;100.00
62510;BME280;48558;48.242;11.654;2023-05-20T18:32:16;95906.03;;;18.79;100.00
62510;BME280;48558;48.242;11.654;2023-05-20T18:36:28;95911.53;;;18.66;100.00
62510;BME280;48558;48.242;11.654;2023-05-20T18:40:41;95908.38;;;18.50;100.00
62510;BME280;48558;48.242;11.654;2023-05-20T18:44:54;95895.00;;;18.38;100.00
62510;BME280;48558;48.242;11.654;2023-05-20T18:49:06;95903.44;;;18.32;100.00
62510;BME280;48558;48.242;11.654;2023-05-20T18:53:29;95900.88;;;18.34;100.00
62510;BME280;48558;48.242;11.654;2023-05-20T18:57:41;95902.63;;;18.13;100.00
62510;BME280;48558;48.242;11.654;2023-05-20T19:01:54;95907.72;;;18.09;100.00
62510;BME280;48558;48.242;11.654;2023-05-20T19:06:07;95905.69;;;17.80;100.00
62510;BME280;48558;48.242;11.654;2023-05-20T19:10:20;95901.63;;;17.81;100.00
62510;BME280;48558;48.242;11.654;2023-05-20T19:14:33;95909.97;;;17.86;100.00
62510;BME280;48558;48.242;11.654;2023-05-20T19:18:49;95906.75;;;17.77;100.00
62510;BME280;48558;48.242;11.654;2023-05-20T19:23:01;95921.53;;;17.66;100.00
62510;BME280;48558;48.242;11.654;2023-05-20T19:27:14;95916.16;;;17.74;100.00
62510;BME280;48558;48.242;11.654;2023-05-20T19:31:27;95928.22;;;17.58;100.00
62510;BME280;48558;48.242;11.654;2023-05-20T19:35:40;95931.25;;;17.60;100.00
62510;BME280;48558;48.242;11.654;2023-05-20T19:39:53;95935.88;;;17.46;100.00
62510;BME280;48558;48.242;11.654;2023-05-20T19:44:09;95934.94;;;17.33;100.00
62510;BME280;48558;48.242;11.654;2023-05-20T19:48:22;95929.94;;;17.14;100.00
62510;BME280;48558;48.242;11.654;2023-05-20T19:52:34;95943.38;;;17.21;100.00
62510;BME280;48558;48.242;11.654;2023-05-20T19:56:47;95938.31;;;17.14;100.00
62510;BME280;48558;48.242;11.654;2023-05-20T20:00:59;95944.91;;;17.23;100.00
62510;BME280;48558;48.242;11.654;2023-05-20T20:05:13;95948.22;;;17.15;100.00
62510;BME280;48558;48.242;11.654;2023-05-20T20:09:26;95948.53;;;17.06;100.00
62510;BME280;48558;48.242;11.654;2023-05-20T20:13:39;95939.44;;;16.89;100.00
62510;BME280;48558;48.242;11.654;2023-05-20T20:17:51;95949.06;;;16.94;100.00
62510;BME280;48558;48.242;11.654;2023-05-20T20:22:04;95937.19;;;16.88;100.00
62510;BME280;48558;48.242;11.654;2023-05-20T20:26:17;95953.97;;;16.82;100.00
62510;BME280;48558;48.242;11.654;2023-05-20T20:30:34;95944.34;;;16.72;100.00
62510;BME280;48558;48.242;11.654;2023-05-20T20:34:47;95958.06;;;16.59;100.00
62510;BME280;48558;48.242;11.654;2023-05-20T20:39:00;95952.75;;;16.39;100.00
62510;BME280;48558;48.242;11.654;2023-05-20T20:43:16;95947.69;;;16.43;100.00
62510;BME280;48558;48.242;11.654;2023-05-20T20:47:31;95960.09;;;16.31;100.00
62510;BME280;48558;48.242;11.654;2023-05-20T20:51:45;95949.75;;;16.26;100.00
62510;BME280;48558;48.242;11.654;2023-05-20T20:56:08;95940.38;;;16.23;100.00
62510;BME280;48558;48.242;11.654;2023-05-20T21:00:27;95947.47;;;16.19;100.00
62510;BME280;48558;48.242;11.654;2023-05-20T21:04:40;95947.69;;;16.26;100.00
62510;BME280;48558;48.242;11.654;2023-05-20T21:08:53;95949.00;;;16.14;100.00
62510;BME280;48558;48.242;11.654;2023-05-20T21:13:09;95958.09;;;16.15;100.00
62510;BME280;48558;48.242;11.654;2023-05-20T21:17:22;95957.59;;;16.11;100.00
62510;BME280;48558;48.242;11.654;2023-05-20T21:21:44;95943.66;;;16.00;100.00
62510;BME280;48558;48.242;11.654;2023-05-20T21:25:57;95946.94;;;16.04;100.00
62510;BME280;48558;48.242;11.654;2023-05-20T21:30:10;95947.97;;;16.06;100.00
62510;BME280;48558;48.242;11.654;2023-05-20T21:34:23;95940.09;;;15.99;100.00
62510;BME280;48558;48.242;11.654;2023-05-20T21:38:35;95937.84;;;15.98;100.00
62510;BME280;48558;48.242;11.654;2023-05-20T21:42:48;95938.34;;;15.91;100.00
62510;BME280;48558;48.242;11.654;2023-05-20T21:47:00;95928.72;;;15.92;100.00
62510;BME280;48558;48.242;11.654;2023-05-20T21:51:23;95934.56;;;15.83;100.00
62510;BME280;48558;48.242;11.654;2023-05-20T21:55:35;95933.78;;;15.82;100.00
62510;BME280;48558;48.242;11.654;2023-05-20T21:59:48;95932.00;;;15.79;100.00
62510;BME280;48558;48.242;11.654;2023-05-20T22:04:04;95926.94;;;15.77;100.00
62510;BME280;48558;48.242;11.654;2023-05-20T22:08:18;95926.94;;;15.72;100.00
62510;BME280;48558;48.242;11.654;2023-05-20T22:12:42;95927.94;;;15.63;100.00
62510;BME280;48558;48.242;11.654;2023-05-20T22:16:55;95915.03;;;15.44;100.00